createdAt,value
2018-06-28T00:00:26.637Z,14.00
2018-06-28T00:02:54.771Z,14.00
2018-06-28T00:05:22.868Z,13.90
2018-06-28T00:07:51.015Z,13.90
2018-06-28T00:10:19.125Z,13.80
2018-06-28T00:12:47.214Z,13.70
2018-06-28T00:15:15.409Z,13.70
2018-06-28T00:17:43.538Z,13.60
2018-06-28T00:20:11.761Z,13.50
2018-06-28T00:22:39.866Z,13.50
2018-06-28T00:25:07.980Z,13.40
2018-06-28T00:27:36.187Z,13.40
2018-06-28T00:30:04.714Z,13.40
2018-06-28T00:32:32.858Z,13.30
2018-06-28T00:35:00.945Z,13.30
2018-06-28T00:37:29.126Z,13.30
2018-06-28T00:39:57.240Z,13.30
2018-06-28T00:42:25.342Z,13.20
2018-06-28T00:44:53.455Z,13.20
2018-06-28T00:47:21.584Z,13.10
2018-06-28T00:49:49.703Z,13.10
2018-06-28T00:52:17.838Z,13.00
2018-06-28T00:54:45.948Z,13.00
2018-06-28T00:57:14.076Z,12.90
2018-06-28T00:59:42.210Z,12.90
2018-06-28T01:02:10.314Z,12.80
2018-06-28T01:04:38.445Z,12.70
2018-06-28T01:07:06.726Z,12.70
2018-06-28T01:09:34.862Z,12.60
2018-06-28T01:12:02.962Z,12.50
2018-06-28T01:14:34.925Z,12.60
2018-06-28T01:17:03.057Z,12.50
2018-06-28T01:19:31.166Z,12.50
2018-06-28T01:21:59.293Z,12.50
2018-06-28T01:24:27.391Z,12.50
2018-06-28T01:26:55.550Z,12.40
2018-06-28T01:29:23.664Z,12.40
2018-06-28T01:31:51.750Z,12.30
2018-06-28T01:34:19.906Z,12.30
2018-06-28T01:36:48.023Z,12.20
2018-06-28T01:39:16.159Z,12.10
2018-06-28T01:41:55.658Z,12.00
2018-06-28T01:44:23.810Z,11.90
2018-06-28T01:46:51.954Z,11.80
2018-06-28T01:49:20.048Z,11.70
2018-06-28T01:51:48.146Z,11.70
2018-06-28T01:54:16.272Z,11.60
2018-06-28T01:56:44.436Z,11.60
2018-06-28T01:59:12.538Z,11.50
2018-06-28T02:01:40.674Z,11.40
2018-06-28T02:04:08.798Z,11.30
2018-06-28T02:06:36.930Z,11.30
2018-06-28T02:09:07.593Z,11.20
2018-06-28T02:11:35.722Z,11.20
2018-06-28T02:14:03.912Z,11.10
2018-06-28T02:16:32.003Z,11.10
2018-06-28T02:19:00.118Z,11.00
2018-06-28T02:21:28.243Z,11.00
2018-06-28T02:23:56.351Z,11.00
2018-06-28T02:26:24.467Z,10.90
2018-06-28T02:28:52.575Z,10.90
2018-06-28T02:31:20.690Z,10.80
2018-06-28T02:33:48.810Z,10.70
2018-06-28T02:36:16.979Z,10.70
2018-06-28T02:38:45.100Z,10.60
2018-06-28T02:41:13.230Z,10.60
2018-06-28T02:43:41.329Z,10.50
2018-06-28T02:46:09.456Z,10.50
2018-06-28T02:48:37.555Z,10.40
2018-06-28T02:51:05.698Z,10.40
2018-06-28T02:53:33.793Z,10.40
2018-06-28T02:56:01.923Z,10.40
2018-06-28T02:58:30.054Z,10.40
2018-06-28T03:00:58.177Z,10.40
2018-06-28T03:03:26.299Z,10.40
2018-06-28T03:05:54.450Z,10.40
2018-06-28T03:08:22.554Z,10.40
2018-06-28T03:10:50.669Z,10.40
2018-06-28T03:13:18.771Z,10.40
2018-06-28T03:15:46.878Z,10.40
2018-06-28T03:18:15.002Z,10.40
2018-06-28T03:20:43.088Z,10.30
2018-06-28T03:23:11.195Z,10.30
2018-06-28T03:25:39.326Z,10.30
2018-06-28T03:28:07.477Z,10.30
2018-06-28T03:30:35.608Z,10.30
2018-06-28T03:33:03.723Z,10.30
2018-06-28T03:35:31.833Z,10.30
2018-06-28T03:38:00.108Z,10.30
2018-06-28T03:40:28.090Z,10.30
2018-06-28T03:42:56.203Z,10.10
2018-06-28T03:45:24.310Z,10.30
2018-06-28T03:47:52.426Z,10.30
2018-06-28T03:50:20.514Z,10.30
2018-06-28T03:52:48.713Z,10.30
2018-06-28T03:55:16.811Z,10.30
2018-06-28T03:57:44.919Z,10.20
2018-06-28T04:00:13.050Z,10.20
2018-06-28T04:02:41.178Z,10.20
2018-06-28T04:05:09.347Z,10.20
2018-06-28T04:07:37.468Z,10.20
2018-06-28T04:10:05.644Z,10.20
2018-06-28T04:12:33.752Z,10.20
2018-06-28T04:15:01.874Z,10.30
2018-06-28T04:17:29.990Z,10.30
2018-06-28T04:19:58.135Z,10.30
2018-06-28T04:22:30.594Z,10.40
2018-06-28T04:25:02.149Z,10.40
2018-06-28T04:27:30.420Z,10.40
2018-06-28T04:29:59.074Z,10.50
2018-06-28T04:32:27.206Z,10.50
2018-06-28T04:34:55.383Z,10.60
2018-06-28T04:37:23.659Z,10.70
2018-06-28T04:39:51.769Z,10.80
2018-06-28T04:42:19.875Z,10.80
2018-06-28T04:44:47.996Z,10.90
2018-06-28T04:47:16.105Z,11.00
2018-06-28T04:49:44.236Z,11.10
2018-06-28T04:52:12.318Z,11.30
2018-06-28T04:54:40.436Z,11.30
2018-06-28T04:57:08.625Z,11.40
2018-06-28T04:59:36.722Z,11.50
2018-06-28T05:02:05.023Z,11.70
2018-06-28T05:04:33.139Z,11.80
2018-06-28T05:07:01.255Z,11.90
2018-06-28T05:09:29.359Z,12.00
2018-06-28T05:11:57.493Z,12.10
2018-06-28T05:14:25.597Z,12.20
2018-06-28T05:16:53.721Z,12.40
2018-06-28T05:19:21.851Z,12.50
2018-06-28T05:21:49.972Z,12.60
2018-06-28T05:26:52.646Z,12.80
2018-06-28T05:29:20.737Z,12.90
2018-06-28T05:31:48.874Z,13.00
2018-06-28T05:34:16.995Z,13.10
2018-06-28T05:36:45.122Z,13.20
2018-06-28T05:39:13.357Z,13.30
2018-06-28T05:41:41.462Z,13.40
2018-06-28T05:44:09.590Z,13.60
2018-06-28T05:46:37.913Z,13.70
2018-06-28T05:49:06.017Z,13.90
2018-06-28T05:51:34.135Z,14.00
2018-06-28T05:54:02.278Z,14.10
2018-06-28T05:56:30.387Z,14.30
2018-06-28T05:58:58.518Z,14.40
2018-06-28T06:01:26.682Z,14.60
2018-06-28T06:03:54.796Z,14.80
2018-06-28T06:06:22.898Z,14.90
2018-06-28T06:08:51.047Z,15.10
2018-06-28T06:11:19.157Z,15.30
2018-06-28T06:13:55.190Z,15.50
2018-06-28T06:16:24.020Z,15.70
2018-06-28T06:18:52.161Z,15.90
2018-06-28T06:21:20.277Z,16.10
2018-06-28T06:23:48.395Z,16.30
2018-06-28T06:26:16.747Z,16.40
2018-06-28T06:28:44.851Z,16.70
2018-06-28T06:31:12.941Z,16.80
2018-06-28T06:33:41.193Z,17.00
2018-06-28T06:36:09.313Z,17.20
2018-06-28T06:38:37.451Z,17.40
2018-06-28T06:41:06.291Z,17.60
2018-06-28T06:43:35.088Z,17.80
2018-06-28T06:46:03.304Z,18.00
2018-06-28T06:48:31.710Z,18.20
2018-06-28T06:50:59.867Z,18.50
2018-06-28T06:53:28.039Z,19.00
2018-06-28T06:55:56.384Z,19.60
2018-06-28T06:58:24.498Z,20.30
2018-06-28T07:00:52.619Z,20.80
2018-06-28T07:03:20.715Z,21.20
2018-06-28T07:05:48.842Z,21.40
2018-06-28T07:08:16.955Z,21.70
2018-06-28T07:10:45.203Z,21.70
2018-06-28T07:13:13.306Z,21.90
2018-06-28T07:15:41.437Z,22.00
2018-06-28T07:18:16.131Z,22.20
2018-06-28T07:20:44.243Z,22.30
2018-06-28T07:23:12.342Z,22.40
2018-06-28T07:25:40.536Z,22.40
2018-06-28T07:28:08.634Z,22.40
2018-06-28T07:30:36.832Z,22.40
2018-06-28T07:33:04.970Z,22.70
2018-06-28T07:35:33.064Z,22.80
2018-06-28T07:38:01.145Z,22.80
2018-06-28T07:40:29.253Z,22.60
2018-06-28T07:42:57.502Z,22.20
2018-06-28T07:45:25.631Z,22.50
2018-06-28T07:47:53.742Z,23.00
2018-06-28T07:50:21.862Z,23.70
2018-06-28T07:52:49.983Z,24.50
2018-06-28T07:55:18.171Z,24.90
2018-06-28T07:57:46.242Z,25.00
2018-06-28T08:00:14.378Z,25.20
2018-06-28T08:02:42.553Z,25.60
2018-06-28T08:05:10.615Z,26.30
2018-06-28T08:07:38.804Z,26.80
2018-06-28T08:10:07.018Z,26.80
2018-06-28T08:12:35.140Z,26.40
2018-06-28T08:15:03.391Z,26.10
2018-06-28T08:17:31.551Z,25.80
2018-06-28T08:19:59.682Z,25.90
2018-06-28T08:22:27.839Z,25.50
2018-06-28T08:24:55.959Z,25.00
2018-06-28T08:27:24.154Z,24.70
2018-06-28T08:29:52.347Z,24.30
2018-06-28T08:32:20.473Z,24.10
2018-06-28T08:34:48.566Z,23.80
2018-06-28T08:37:16.694Z,23.60
2018-06-28T08:39:44.825Z,23.50
2018-06-28T08:42:12.955Z,23.40
2018-06-28T08:44:41.214Z,23.30
2018-06-28T08:47:09.318Z,23.50
2018-06-28T08:49:37.422Z,23.50
2018-06-28T08:52:05.541Z,23.60
2018-06-28T08:54:33.859Z,23.70
2018-06-28T08:57:01.959Z,23.80
2018-06-28T08:59:30.067Z,24.00
2018-06-28T09:01:58.166Z,23.90
2018-06-28T09:04:26.263Z,23.90
2018-06-28T09:06:54.609Z,23.70
2018-06-28T09:09:22.739Z,23.50
2018-06-28T09:11:50.841Z,23.50
2018-06-28T09:14:18.984Z,23.50
2018-06-28T09:16:47.123Z,23.60
2018-06-28T09:19:15.224Z,23.70
2018-06-28T09:21:43.340Z,23.80
2018-06-28T09:24:11.458Z,23.80
2018-06-28T09:26:39.632Z,23.70
2018-06-28T09:29:07.745Z,23.60
2018-06-28T09:31:35.988Z,23.50
2018-06-28T09:34:04.094Z,23.70
2018-06-28T09:36:32.771Z,23.80
2018-06-28T09:39:00.921Z,24.10
2018-06-28T09:41:29.061Z,24.40
2018-06-28T09:43:57.183Z,24.90
2018-06-28T09:46:25.315Z,25.20
2018-06-28T09:48:53.451Z,25.50
2018-06-28T09:51:21.582Z,25.80
2018-06-28T09:53:49.715Z,26.10
2018-06-28T09:56:17.858Z,26.70
2018-06-28T09:58:45.971Z,27.10
2018-06-28T10:01:14.106Z,27.20
2018-06-28T10:03:42.223Z,26.90
2018-06-28T10:06:10.363Z,26.90
2018-06-28T10:08:38.730Z,27.30
2018-06-28T10:11:06.886Z,27.60
2018-06-28T10:13:35.081Z,28.30
2018-06-28T10:16:03.273Z,28.50
2018-06-28T10:18:31.439Z,28.80
2018-06-28T10:20:59.560Z,28.70
2018-06-28T10:23:27.654Z,28.20
2018-06-28T10:25:55.767Z,27.30
2018-06-28T10:28:23.944Z,26.80
2018-06-28T10:30:52.065Z,26.30
2018-06-28T10:33:20.170Z,25.90
2018-06-28T10:35:48.292Z,25.50
2018-06-28T10:38:16.454Z,25.00
2018-06-28T10:40:44.567Z,24.70
2018-06-28T10:43:12.685Z,24.40
2018-06-28T10:45:40.826Z,24.10
2018-06-28T10:48:08.988Z,24.10
2018-06-28T10:50:37.110Z,24.20
2018-06-28T10:53:05.254Z,24.30
2018-06-28T10:55:33.362Z,24.10
2018-06-28T10:58:01.466Z,24.20
2018-06-28T11:00:29.691Z,24.30
2018-06-28T11:02:57.715Z,24.50
2018-06-28T11:05:25.829Z,24.60
2018-06-28T11:07:53.932Z,24.90
2018-06-28T11:10:22.066Z,25.30
2018-06-28T11:12:50.177Z,25.40
2018-06-28T11:15:18.402Z,25.30
2018-06-28T11:17:46.535Z,24.90
2018-06-28T11:20:21.247Z,24.40
2018-06-28T11:22:49.370Z,24.10
2018-06-28T11:25:17.473Z,23.80
2018-06-28T11:27:45.580Z,23.30
2018-06-28T11:30:13.685Z,23.00
2018-06-28T11:32:41.790Z,22.70
2018-06-28T11:35:09.981Z,22.50
2018-06-28T11:37:38.103Z,22.40
2018-06-28T11:40:06.265Z,22.30
2018-06-28T11:42:34.385Z,22.20
2018-06-28T11:45:02.576Z,22.10
2018-06-28T11:47:30.668Z,22.10
2018-06-28T11:49:58.804Z,22.00
2018-06-28T11:52:26.938Z,21.90
2018-06-28T11:54:55.105Z,21.80
2018-06-28T11:57:23.286Z,21.70
2018-06-28T11:59:51.411Z,21.70
2018-06-28T12:02:19.510Z,21.60
2018-06-28T12:04:47.670Z,21.70
2018-06-28T12:07:15.787Z,21.70
2018-06-28T12:09:43.912Z,21.80
2018-06-28T12:12:12.022Z,21.90
2018-06-28T12:14:40.163Z,22.20
2018-06-28T12:17:09.147Z,22.40
2018-06-28T12:19:37.287Z,22.50
2018-06-28T12:22:05.538Z,22.60
2018-06-28T12:24:33.679Z,22.60
2018-06-28T12:27:01.804Z,22.50
2018-06-28T12:29:29.918Z,22.20
2018-06-28T12:31:58.031Z,22.00
2018-06-28T12:34:26.166Z,21.90
2018-06-28T12:36:54.274Z,21.70
2018-06-28T12:39:22.423Z,21.70
2018-06-28T12:41:50.566Z,21.90
2018-06-28T12:44:18.706Z,22.10
2018-06-28T12:47:59.493Z,22.30
2018-06-28T12:50:27.601Z,22.80
2018-06-28T12:53:05.053Z,23.70
2018-06-28T12:56:37.790Z,24.30
2018-06-28T12:59:07.221Z,24.80
2018-06-28T13:01:35.410Z,24.90
2018-06-28T13:04:03.594Z,24.70
2018-06-28T13:06:31.708Z,24.70
2018-06-28T13:09:00.401Z,24.70
2018-06-28T13:11:28.747Z,24.80
2018-06-28T13:13:56.869Z,25.00
2018-06-28T13:16:26.191Z,25.00
2018-06-28T13:18:54.327Z,25.00
2018-06-28T13:21:22.474Z,24.70
2018-06-28T13:23:50.605Z,24.50
2018-06-28T13:26:19.147Z,24.40
2018-06-28T13:28:47.286Z,24.50
2018-06-28T13:31:15.599Z,24.60
2018-06-28T13:33:43.835Z,24.70
2018-06-28T13:36:11.924Z,24.80
2018-06-28T13:38:40.072Z,24.90
2018-06-28T13:41:08.429Z,24.90
2018-06-28T13:43:36.426Z,25.10
2018-06-28T13:46:04.649Z,25.20
2018-06-28T13:48:32.765Z,25.00
2018-06-28T13:51:01.036Z,25.00
2018-06-28T13:53:29.167Z,24.70
2018-06-28T13:55:57.275Z,24.30
2018-06-28T13:58:25.424Z,24.10
2018-06-28T14:00:53.510Z,23.80
2018-06-28T14:03:21.852Z,23.50
2018-06-28T14:05:49.764Z,23.40
2018-06-28T14:08:17.870Z,23.30
2018-06-28T14:10:45.993Z,23.40
2018-06-28T14:13:14.119Z,23.60
2018-06-28T14:15:42.335Z,23.80
2018-06-28T14:18:10.479Z,24.10
2018-06-28T14:20:38.570Z,24.20
2018-06-28T14:23:06.708Z,24.30
2018-06-28T14:25:34.882Z,24.40
2018-06-28T14:28:03.084Z,24.70
2018-06-28T14:30:31.140Z,25.00
2018-06-28T14:32:59.270Z,25.10
2018-06-28T14:35:27.407Z,25.00
2018-06-28T14:37:55.590Z,24.90
2018-06-28T14:40:23.722Z,24.70
2018-06-28T14:42:51.866Z,24.40
2018-06-28T14:45:19.992Z,24.00
2018-06-28T14:47:48.134Z,23.50
2018-06-28T14:50:16.259Z,23.10
2018-06-28T14:52:44.439Z,22.70
2018-06-28T14:55:12.577Z,22.40
2018-06-28T14:57:40.701Z,22.00
2018-06-28T15:00:08.819Z,21.80
2018-06-28T15:02:36.939Z,21.70
2018-06-28T15:05:05.809Z,21.60
2018-06-28T15:07:33.932Z,21.50
2018-06-28T15:10:02.103Z,21.40
2018-06-28T15:12:30.280Z,21.20
2018-06-28T15:14:58.427Z,21.00
2018-06-28T15:17:26.613Z,20.70
2018-06-28T15:19:54.741Z,20.40
2018-06-28T15:22:22.864Z,20.30
2018-06-28T15:24:51.008Z,20.20
2018-06-28T15:27:19.326Z,20.10
2018-06-28T15:29:47.434Z,20.00
2018-06-28T15:32:15.686Z,19.90
2018-06-28T15:34:43.802Z,19.80
2018-06-28T15:37:11.931Z,19.70
2018-06-28T15:39:40.060Z,19.70
2018-06-28T15:42:08.202Z,19.70
2018-06-28T15:44:36.334Z,19.70
2018-06-28T15:47:04.471Z,19.70
2018-06-28T15:49:32.586Z,19.70
2018-06-28T15:52:00.773Z,19.60
2018-06-28T15:54:28.863Z,19.60
2018-06-28T15:56:57.018Z,19.70
2018-06-28T15:59:25.130Z,19.70
2018-06-28T16:01:53.363Z,19.80
2018-06-28T16:04:21.599Z,19.80
2018-06-28T16:06:49.751Z,19.90
2018-06-28T16:09:17.873Z,20.00
2018-06-28T16:11:46.029Z,20.00
2018-06-28T16:14:14.129Z,20.10
2018-06-28T16:16:42.409Z,20.30
2018-06-28T16:19:10.548Z,20.30
2018-06-28T16:21:38.669Z,20.30
2018-06-28T16:24:06.861Z,20.50
2018-06-28T16:26:34.971Z,20.60
2018-06-28T16:29:03.122Z,20.80
2018-06-28T16:31:31.260Z,21.00
2018-06-28T16:33:59.386Z,21.00
2018-06-28T16:36:27.514Z,21.00
2018-06-28T16:38:55.654Z,21.00
2018-06-28T16:41:23.805Z,21.00
2018-06-28T16:43:51.907Z,21.00
2018-06-28T16:46:20.117Z,20.90
2018-06-28T16:48:48.156Z,20.90
2018-06-28T16:51:16.287Z,20.90
2018-06-28T16:53:44.422Z,20.80
2018-06-28T16:56:12.547Z,20.80
2018-06-28T16:58:40.710Z,20.70
2018-06-28T17:01:08.877Z,20.60
2018-06-28T17:03:37.005Z,20.60
2018-06-28T17:06:05.203Z,20.60
2018-06-28T17:08:33.342Z,20.50
2018-06-28T17:11:01.494Z,20.50
2018-06-28T17:13:29.635Z,20.50
2018-06-28T17:15:57.770Z,20.50
2018-06-28T17:18:25.911Z,20.50
2018-06-28T17:20:54.032Z,20.50
2018-06-28T17:23:22.141Z,20.40
2018-06-28T17:25:50.339Z,20.30
2018-06-28T17:28:19.323Z,20.10
2018-06-28T17:30:47.478Z,19.90
2018-06-28T17:33:15.687Z,19.70
2018-06-28T17:35:43.795Z,19.60
2018-06-28T17:38:11.957Z,19.50
2018-06-28T17:40:40.091Z,19.20
2018-06-28T17:43:08.187Z,19.00
2018-06-28T17:45:36.794Z,18.90
2018-06-28T17:48:05.724Z,18.70
2018-06-28T17:50:33.845Z,18.60
2018-06-28T17:53:02.039Z,18.40
2018-06-28T17:55:30.180Z,18.30
2018-06-28T17:57:58.274Z,18.20
2018-06-28T18:00:26.438Z,18.10
2018-06-28T18:02:54.527Z,18.10
2018-06-28T18:05:22.715Z,18.00
2018-06-28T18:07:50.837Z,17.90
2018-06-28T18:10:19.042Z,17.80
2018-06-28T18:12:47.246Z,17.70
2018-06-28T18:15:15.361Z,17.70
2018-06-28T18:17:43.439Z,17.60
2018-06-28T18:20:11.606Z,17.60
2018-06-28T18:22:39.756Z,17.60
2018-06-28T18:25:07.870Z,17.60
2018-06-28T18:27:36.033Z,17.60
2018-06-28T18:30:04.478Z,17.50
2018-06-28T18:32:32.658Z,17.50
2018-06-28T18:35:00.795Z,17.50
2018-06-28T18:37:28.917Z,17.50
2018-06-28T18:39:57.050Z,17.60
2018-06-28T18:42:25.194Z,17.60
2018-06-28T18:44:53.363Z,17.60
2018-06-28T18:47:21.515Z,17.50
2018-06-28T18:49:49.711Z,17.40
2018-06-28T18:52:17.898Z,17.30
2018-06-28T18:54:46.020Z,17.30
2018-06-28T18:57:14.146Z,17.30
2018-06-28T18:59:42.380Z,17.20
2018-06-28T19:02:10.584Z,17.20
2018-06-28T19:04:38.658Z,17.20
2018-06-28T19:07:07.177Z,17.10
2018-06-28T19:09:40.733Z,17.10
2018-06-28T19:12:08.986Z,17.10
2018-06-28T19:14:42.406Z,17.00
2018-06-28T19:17:10.655Z,16.90
2018-06-28T19:19:38.918Z,16.90
2018-06-28T19:22:12.378Z,16.90
2018-06-28T19:24:40.503Z,16.90
2018-06-28T19:27:08.751Z,16.80
2018-06-28T19:29:42.318Z,16.80
2018-06-28T19:32:17.369Z,16.70
2018-06-28T19:34:45.764Z,16.60
2018-06-28T19:37:19.341Z,16.60
2018-06-28T19:39:54.091Z,16.60
2018-06-28T19:42:27.886Z,16.60
2018-06-28T19:44:56.295Z,16.60
2018-06-28T19:47:24.650Z,16.50
2018-06-28T19:49:58.400Z,16.50
2018-06-28T19:52:32.040Z,16.50
2018-06-28T19:55:00.534Z,16.50
2018-06-28T19:57:29.124Z,16.50
2018-06-28T19:59:57.467Z,16.50
2018-06-28T20:02:31.062Z,16.50
2018-06-28T20:04:59.395Z,16.50
2018-06-28T20:07:27.809Z,16.60
2018-06-28T20:09:56.098Z,16.60
2018-06-28T20:12:30.844Z,16.60
2018-06-28T20:15:04.439Z,16.50
2018-06-28T20:17:38.127Z,16.50
2018-06-28T20:20:12.406Z,16.50
2018-06-28T20:22:40.802Z,16.50
2018-06-28T20:25:09.246Z,16.50
2018-06-28T20:27:43.015Z,16.40
2018-06-28T20:30:16.753Z,16.40
2018-06-28T20:32:50.403Z,16.40
2018-06-28T20:35:18.754Z,16.30
2018-06-28T20:37:47.582Z,16.30
2018-06-28T20:40:16.426Z,16.30
2018-06-28T20:42:44.739Z,16.30
2018-06-28T20:45:13.095Z,16.20
2018-06-28T20:47:41.255Z,16.20
2018-06-28T20:50:09.491Z,16.20
2018-06-28T20:52:37.655Z,16.20
2018-06-28T20:55:06.875Z,16.20
2018-06-28T20:57:35.234Z,16.20
2018-06-28T21:00:03.569Z,16.10
2018-06-28T21:02:31.825Z,16.20
2018-06-28T21:05:00.084Z,16.20
2018-06-28T21:07:28.459Z,16.20
2018-06-28T21:09:56.692Z,16.10
2018-06-28T21:12:24.967Z,16.10
2018-06-28T21:14:53.226Z,16.10
2018-06-28T21:17:21.654Z,16.10
2018-06-28T21:19:50.539Z,16.10
2018-06-28T21:22:18.788Z,16.10
2018-06-28T21:24:47.014Z,16.20
2018-06-28T21:27:15.315Z,16.10
2018-06-28T21:29:43.964Z,16.20
2018-06-28T21:32:12.235Z,16.10
2018-06-28T21:34:40.555Z,16.20
2018-06-28T21:37:08.727Z,16.10
2018-06-28T21:39:37.058Z,16.20
2018-06-28T21:42:05.506Z,16.20
2018-06-28T21:44:33.909Z,16.20
2018-06-28T21:47:02.159Z,16.20
2018-06-28T21:49:30.872Z,16.10
2018-06-28T21:51:59.187Z,16.10
2018-06-28T21:54:27.522Z,16.10
2018-06-28T21:56:55.784Z,16.10
2018-06-28T21:59:23.921Z,16.00
2018-06-28T22:01:52.939Z,16.00
2018-06-28T22:04:21.094Z,16.00
2018-06-28T22:06:49.983Z,16.00
2018-06-28T22:09:19.203Z,15.90
2018-06-28T22:11:47.553Z,15.90
2018-06-28T22:14:16.746Z,15.90
2018-06-28T22:16:45.145Z,15.80
2018-06-28T22:19:13.302Z,15.80
2018-06-28T22:21:41.454Z,15.70
2018-06-28T22:24:09.615Z,15.80
2018-06-28T22:26:37.778Z,15.70
2018-06-28T22:29:06.127Z,15.70
2018-06-28T22:31:34.269Z,15.70
2018-06-28T22:34:02.374Z,15.70
2018-06-28T22:36:30.495Z,15.80
2018-06-28T22:38:58.611Z,15.80
2018-06-28T22:41:26.712Z,15.80
2018-06-28T22:43:54.834Z,15.80
2018-06-28T22:46:22.941Z,15.80
2018-06-28T22:48:51.080Z,15.80
2018-06-28T22:51:19.273Z,15.80
2018-06-28T22:53:47.409Z,15.80
2018-06-28T22:56:15.542Z,15.80
2018-06-28T22:58:43.664Z,15.80
2018-06-28T23:01:11.777Z,15.80
2018-06-28T23:03:39.917Z,15.80
2018-06-28T23:06:08.036Z,15.80
2018-06-28T23:08:36.128Z,15.80
2018-06-28T23:11:04.251Z,15.80
2018-06-28T23:13:32.362Z,15.80
2018-06-28T23:16:00.472Z,15.80
2018-06-28T23:18:28.583Z,15.80
2018-06-28T23:20:56.726Z,15.80
2018-06-28T23:23:24.866Z,15.80
2018-06-28T23:25:52.994Z,15.90
2018-06-28T23:28:21.098Z,15.90
2018-06-28T23:30:49.218Z,15.90
2018-06-28T23:33:17.315Z,15.90
2018-06-28T23:35:45.429Z,15.90
2018-06-28T23:38:13.534Z,15.90
2018-06-28T23:40:41.722Z,15.80
2018-06-28T23:43:09.820Z,15.80
2018-06-28T23:45:37.901Z,15.80
2018-06-28T23:48:06.032Z,15.80
2018-06-28T23:50:34.134Z,15.80
2018-06-28T23:53:02.277Z,15.80
2018-06-28T23:55:30.466Z,15.80
2018-06-28T23:57:58.770Z,15.80
